sensor_id;sensor_type;location;lat;lon;timestamp;pressure;altitude;pressure_sealevel;temperature;humidity
28432;BME280;15664;51.302;7.744;2022-10-23T00:02:22;53495.09;;;-146.98;87.89
28432;BME280;15664;51.302;7.744;2022-10-23T00:04:50;53462.75;;;-146.98;87.74
28432;BME280;15664;51.302;7.744;2022-10-23T00:07:16;53507.22;;;-146.98;87.67
28432;BME280;15664;51.302;7.744;2022-10-23T00:09:42;53501.16;;;-146.98;87.63
28432;BME280;15664;51.302;7.744;2022-10-23T00:12:07;53539.56;;;-146.98;87.46
28432;BME280;15664;51.302;7.744;2022-10-23T00:14:33;53523.38;;;-146.98;87.43
28432;BME280;15664;51.302;7.744;2022-10-23T00:16:58;53493.06;;;-146.98;87.34
28432;BME280;15664;51.302;7.744;2022-10-23T00:19:24;53529.44;;;-146.98;87.23
28432;BME280;15664;51.302;7.744;2022-10-23T00:21:49;53531.47;;;-146.98;87.16
28432;BME280;15664;51.302;7.744;2022-10-23T00:24:15;53539.56;;;-146.98;87.33
28432;BME280;15664;51.302;7.744;2022-10-23T00:26:41;53511.25;;;-146.98;87.31
28432;BME280;15664;51.302;7.744;2022-10-23T00:29:07;53513.28;;;-146.98;87.29
28432;BME280;15664;51.302;7.744;2022-10-23T00:31:32;53478.91;;;-146.98;87.08
28432;BME280;15664;51.302;7.744;2022-10-23T00:33:59;53511.25;;;-146.98;87.25
28432;BME280;15664;51.302;7.744;2022-10-23T00:36:24;53535.50;;;-146.98;87.20
28432;BME280;15664;51.302;7.744;2022-10-23T00:38:50;53515.31;;;-146.98;87.31
28432;BME280;15664;51.302;7.744;2022-10-23T00:41:20;53547.66;;;-146.98;87.42
28432;BME280;15664;51.302;7.744;2022-10-23T00:45:07;53493.06;;;-146.98;87.42
28432;BME280;15664;51.302;7.744;2022-10-23T00:46:56;53551.69;;;-146.98;87.42
28432;BME280;15664;51.302;7.744;2022-10-23T00:49:22;53523.38;;;-146.98;87.44
28432;BME280;15664;51.302;7.744;2022-10-23T00:51:52;53517.31;;;-146.98;87.61
28432;BME280;15664;51.302;7.744;2022-10-23T00:54:32;53491.03;;;-146.98;87.63
28432;BME280;15664;51.302;7.744;2022-10-23T00:57:00;53482.97;;;-146.98;87.76
28432;BME280;15664;51.302;7.744;2022-10-23T00:59:27;53537.53;;;-146.98;87.83
28432;BME280;15664;51.302;7.744;2022-10-23T01:01:52;53487.00;;;-146.98;87.54
28432;BME280;15664;51.302;7.744;2022-10-23T01:04:18;53533.50;;;-146.98;87.68
28432;BME280;15664;51.302;7.744;2022-10-23T01:07:49;53525.41;;;-146.98;88.50
28432;BME280;15664;51.302;7.744;2022-10-23T01:10:10;53531.47;;;-146.98;88.20
28432;BME280;15664;51.302;7.744;2022-10-23T01:12:44;53531.47;;;-146.98;88.05
28432;BME280;15664;51.302;7.744;2022-10-23T01:18:20;53511.25;;;-146.98;88.07
28432;BME280;15664;51.302;7.744;2022-10-23T01:26:45;53509.25;;;-146.98;88.10
28432;BME280;15664;51.302;7.744;2022-10-23T01:29:38;53539.56;;;-146.98;88.44
28432;BME280;15664;51.302;7.744;2022-10-23T01:32:11;53493.06;;;-146.98;88.44
28432;BME280;15664;51.302;7.744;2022-10-23T01:34:46;53515.31;;;-146.98;88.59
28432;BME280;15664;51.302;7.744;2022-10-23T01:37:14;53533.50;;;-146.98;88.48
28432;BME280;15664;51.302;7.744;2022-10-23T01:39:46;53531.47;;;-146.98;88.44
28432;BME280;15664;51.302;7.744;2022-10-23T01:42:20;53531.47;;;-146.98;88.42
28432;BME280;15664;51.302;7.744;2022-10-23T01:44:51;53509.25;;;-146.98;88.42
28432;BME280;15664;51.302;7.744;2022-10-23T01:47:21;53499.13;;;-146.98;88.45
28432;BME280;15664;51.302;7.744;2022-10-23T01:49:55;53527.44;;;-146.98;88.46
28432;BME280;15664;51.302;7.744;2022-10-23T01:52:22;53507.22;;;-146.98;88.74
28432;BME280;15664;51.302;7.744;2022-10-23T01:54:50;53484.97;;;-146.98;88.70
28432;BME280;15664;51.302;7.744;2022-10-23T01:57:19;53543.59;;;-146.98;88.76
28432;BME280;15664;51.302;7.744;2022-10-23T01:59:50;53523.38;;;-146.98;88.93
28432;BME280;15664;51.302;7.744;2022-10-23T02:02:19;53495.09;;;-146.98;89.20
28432;BME280;15664;51.302;7.744;2022-10-23T02:04:58;53535.50;;;-146.98;89.08
28432;BME280;15664;51.302;7.744;2022-10-23T02:07:24;53517.31;;;-146.98;89.20
28432;BME280;15664;51.302;7.744;2022-10-23T02:09:50;53517.31;;;-146.98;89.22
28432;BME280;15664;51.302;7.744;2022-10-23T02:12:27;53523.38;;;-146.98;89.25
28432;BME280;15664;51.302;7.744;2022-10-23T02:15:02;53521.38;;;-146.98;89.41
28432;BME280;15664;51.302;7.744;2022-10-23T02:20:17;53537.53;;;-146.98;89.60
28432;BME280;15664;51.302;7.744;2022-10-23T02:23:15;53484.97;;;-146.98;89.64
28432;BME280;15664;51.302;7.744;2022-10-23T02:25:55;53525.41;;;-146.98;89.83
28432;BME280;15664;51.302;7.744;2022-10-23T02:28:24;53515.31;;;-146.98;89.87
28432;BME280;15664;51.302;7.744;2022-10-23T02:30:58;53511.25;;;-146.98;89.83
28432;BME280;15664;51.302;7.744;2022-10-23T02:33:26;53533.50;;;-146.98;89.89
28432;BME280;15664;51.302;7.744;2022-10-23T02:35:52;53527.44;;;-146.98;89.92
28432;BME280;15664;51.302;7.744;2022-10-23T02:38:35;53509.25;;;-146.98;89.84
28432;BME280;15664;51.302;7.744;2022-10-23T02:41:25;53535.50;;;-146.98;89.91
28432;BME280;15664;51.302;7.744;2022-10-23T02:44:32;53535.50;;;-146.98;90.12
28432;BME280;15664;51.302;7.744;2022-10-23T02:52:15;53525.41;;;-146.98;90.30
28432;BME280;15664;51.302;7.744;2022-10-23T02:55:13;53531.47;;;-146.98;90.27
28432;BME280;15664;51.302;7.744;2022-10-23T02:57:55;53555.72;;;-146.98;90.10
28432;BME280;15664;51.302;7.744;2022-10-23T03:00:26;53511.25;;;-146.98;90.26
28432;BME280;15664;51.302;7.744;2022-10-23T03:03:12;53525.41;;;-146.98;90.50
28432;BME280;15664;51.302;7.744;2022-10-23T03:05:40;53523.38;;;-146.98;90.60
28432;BME280;15664;51.302;7.744;2022-10-23T03:08:11;53511.25;;;-146.98;90.71
28432;BME280;15664;51.302;7.744;2022-10-23T03:10:37;53505.19;;;-146.98;90.79
28432;BME280;15664;51.302;7.744;2022-10-23T03:13:04;53484.97;;;-146.98;90.82
28432;BME280;15664;51.302;7.744;2022-10-23T03:15:38;53503.19;;;-146.98;90.81
28432;BME280;15664;51.302;7.744;2022-10-23T03:18:03;53501.16;;;-146.98;90.75
28432;BME280;15664;51.302;7.744;2022-10-23T03:20:29;53513.28;;;-146.98;90.74
28432;BME280;15664;51.302;7.744;2022-10-23T03:22:54;53513.28;;;-146.98;90.68
28432;BME280;15664;51.302;7.744;2022-10-23T03:25:19;53533.50;;;-146.98;90.60
28432;BME280;15664;51.302;7.744;2022-10-23T03:27:45;53531.47;;;-146.98;90.52
28432;BME280;15664;51.302;7.744;2022-10-23T03:30:15;53515.31;;;-146.98;90.59
28432;BME280;15664;51.302;7.744;2022-10-23T03:32:41;53495.09;;;-146.98;90.62
28432;BME280;15664;51.302;7.744;2022-10-23T03:35:06;53505.19;;;-146.98;90.59
28432;BME280;15664;51.302;7.744;2022-10-23T03:37:31;53513.28;;;-146.98;90.55
28432;BME280;15664;51.302;7.744;2022-10-23T03:39:57;53507.22;;;-146.98;90.48
28432;BME280;15664;51.302;7.744;2022-10-23T03:42:22;53519.34;;;-146.98;90.35
28432;BME280;15664;51.302;7.744;2022-10-23T03:44:47;53541.59;;;-146.98;90.16
28432;BME280;15664;51.302;7.744;2022-10-23T03:47:13;53535.50;;;-146.98;89.95
28432;BME280;15664;51.302;7.744;2022-10-23T03:49:40;53501.16;;;-146.98;89.81
28432;BME280;15664;51.302;7.744;2022-10-23T03:52:06;53535.50;;;-146.98;89.63
28432;BME280;15664;51.302;7.744;2022-10-23T03:54:32;53493.06;;;-146.98;89.36
28432;BME280;15664;51.302;7.744;2022-10-23T03:56:58;53466.78;;;-146.98;89.27
28432;BME280;15664;51.302;7.744;2022-10-23T03:59:25;53495.09;;;-146.98;89.21
28432;BME280;15664;51.302;7.744;2022-10-23T04:01:50;53543.59;;;-146.98;89.04
28432;BME280;15664;51.302;7.744;2022-10-23T04:04:16;53474.88;;;-146.98;88.74
28432;BME280;15664;51.302;7.744;2022-10-23T04:06:42;53507.22;;;-146.98;88.51
28432;BME280;15664;51.302;7.744;2022-10-23T04:09:07;53503.19;;;-146.98;87.96
28432;BME280;15664;51.302;7.744;2022-10-23T04:11:33;53531.47;;;-146.98;87.18
28432;BME280;15664;51.302;7.744;2022-10-23T04:13:58;53513.28;;;-146.98;86.91
28432;BME280;15664;51.302;7.744;2022-10-23T04:16:24;53527.44;;;-146.98;86.75
28432;BME280;15664;51.302;7.744;2022-10-23T04:18:50;53493.06;;;-146.98;86.77
28432;BME280;15664;51.302;7.744;2022-10-23T04:21:15;53515.31;;;-146.98;86.75
28432;BME280;15664;51.302;7.744;2022-10-23T04:23:41;53489.03;;;-146.98;86.63
28432;BME280;15664;51.302;7.744;2022-10-23T04:26:16;53470.84;;;-146.98;86.54
28432;BME280;15664;51.302;7.744;2022-10-23T04:28:42;53491.03;;;-146.98;86.65
28432;BME280;15664;51.302;7.744;2022-10-23T04:31:07;53503.19;;;-146.98;86.77
28432;BME280;15664;51.302;7.744;2022-10-23T04:33:32;53511.25;;;-146.98;86.65
28432;BME280;15664;51.302;7.744;2022-10-23T04:35:58;53511.25;;;-146.98;86.59
28432;BME280;15664;51.302;7.744;2022-10-23T04:38:23;53482.97;;;-146.98;86.49
28432;BME280;15664;51.302;7.744;2022-10-23T04:40:50;53476.91;;;-146.98;86.25
28432;BME280;15664;51.302;7.744;2022-10-23T04:43:19;53511.25;;;-146.98;86.30
28432;BME280;15664;51.302;7.744;2022-10-23T04:45:44;53491.03;;;-146.98;86.23
28432;BME280;15664;51.302;7.744;2022-10-23T04:48:10;53495.09;;;-146.98;86.15
28432;BME280;15664;51.302;7.744;2022-10-23T04:50:58;53482.97;;;-146.98;86.14
28432;BME280;15664;51.302;7.744;2022-10-23T04:53:41;53501.16;;;-146.98;86.07
28432;BME280;15664;51.302;7.744;2022-10-23T04:56:30;53505.19;;;-146.98;86.16
28432;BME280;15664;51.302;7.744;2022-10-23T04:59:02;53466.78;;;-146.98;86.23
28432;BME280;15664;51.302;7.744;2022-10-23T05:01:28;53493.06;;;-146.98;85.96
28432;BME280;15664;51.302;7.744;2022-10-23T05:03:55;53484.97;;;-146.98;85.77
28432;BME280;15664;51.302;7.744;2022-10-23T05:06:22;53480.94;;;-146.98;85.82
28432;BME280;15664;51.302;7.744;2022-10-23T05:08:52;53531.47;;;-146.98;85.69
28432;BME280;15664;51.302;7.744;2022-10-23T05:11:27;53509.25;;;-146.98;85.76
28432;BME280;15664;51.302;7.744;2022-10-23T05:13:53;53505.19;;;-146.98;85.27
28432;BME280;15664;51.302;7.744;2022-10-23T05:16:30;53470.84;;;-146.98;85.20
28432;BME280;15664;51.302;7.744;2022-10-23T05:18:57;53495.09;;;-146.98;84.79
28432;BME280;15664;51.302;7.744;2022-10-23T05:21:28;53515.31;;;-146.98;84.64
28432;BME280;15664;51.302;7.744;2022-10-23T05:23:56;53480.94;;;-146.98;84.79
28432;BME280;15664;51.302;7.744;2022-10-23T05:26:21;53458.72;;;-146.98;84.81
28432;BME280;15664;51.302;7.744;2022-10-23T05:28:48;53523.38;;;-146.98;84.76
28432;BME280;15664;51.302;7.744;2022-10-23T05:31:16;53507.22;;;-146.98;84.78
28432;BME280;15664;51.302;7.744;2022-10-23T05:33:47;53499.13;;;-146.98;84.85
28432;BME280;15664;51.302;7.744;2022-10-23T05:36:13;53503.19;;;-146.98;84.85
28432;BME280;15664;51.302;7.744;2022-10-23T05:38:39;53519.34;;;-146.98;84.81
28432;BME280;15664;51.302;7.744;2022-10-23T05:41:11;53458.72;;;-146.98;84.97
28432;BME280;15664;51.302;7.744;2022-10-23T05:43:37;53489.03;;;-146.98;85.03
28432;BME280;15664;51.302;7.744;2022-10-23T05:46:28;53507.22;;;-146.98;85.04
28432;BME280;15664;51.302;7.744;2022-10-23T05:49:13;53503.19;;;-146.98;84.98
28432;BME280;15664;51.302;7.744;2022-10-23T05:51:54;53511.25;;;-146.98;84.76
28432;BME280;15664;51.302;7.744;2022-10-23T05:54:24;53495.09;;;-146.98;84.66
28432;BME280;15664;51.302;7.744;2022-10-23T05:56:57;53480.94;;;-146.98;84.55
28432;BME280;15664;51.302;7.744;2022-10-23T05:59:30;53487.00;;;-146.98;84.60
28432;BME280;15664;51.302;7.744;2022-10-23T06:01:59;53495.09;;;-146.98;84.45
28432;BME280;15664;51.302;7.744;2022-10-23T06:04:47;53515.31;;;-146.98;84.31
28432;BME280;15664;51.302;7.744;2022-10-23T06:07:43;53501.16;;;-146.98;84.20
28432;BME280;15664;51.302;7.744;2022-10-23T06:10:09;53513.28;;;-146.98;84.13
28432;BME280;15664;51.302;7.744;2022-10-23T06:12:38;53531.47;;;-146.98;84.11
28432;BME280;15664;51.302;7.744;2022-10-23T06:15:04;53501.16;;;-146.98;84.06
28432;BME280;15664;51.302;7.744;2022-10-23T06:17:52;53519.34;;;-146.98;84.09
28432;BME280;15664;51.302;7.744;2022-10-23T06:20:19;53503.19;;;-146.98;84.32
28432;BME280;15664;51.302;7.744;2022-10-23T06:22:53;53507.22;;;-146.98;84.34
28432;BME280;15664;51.302;7.744;2022-10-23T06:25:36;53499.13;;;-146.98;84.16
28432;BME280;15664;51.302;7.744;2022-10-23T06:28:03;53507.22;;;-146.98;83.90
28432;BME280;15664;51.302;7.744;2022-10-23T06:30:28;53535.50;;;-146.98;83.26
28432;BME280;15664;51.302;7.744;2022-10-23T06:32:54;53462.75;;;-146.98;83.16
28432;BME280;15664;51.302;7.744;2022-10-23T06:35:19;53511.25;;;-146.98;83.43
28432;BME280;15664;51.302;7.744;2022-10-23T06:37:44;53505.19;;;-146.98;83.24
28432;BME280;15664;51.302;7.744;2022-10-23T06:40:15;53476.91;;;-146.98;83.53
28432;BME280;15664;51.302;7.744;2022-10-23T06:42:57;53505.19;;;-146.98;84.05
28432;BME280;15664;51.302;7.744;2022-10-23T06:45:41;53497.09;;;-146.98;84.20
28432;BME280;15664;51.302;7.744;2022-10-23T06:48:26;53505.19;;;-146.98;84.00
28432;BME280;15664;51.302;7.744;2022-10-23T06:51:06;53487.00;;;-146.98;83.63
28432;BME280;15664;51.302;7.744;2022-10-23T06:53:38;53507.22;;;-146.98;83.23
28432;BME280;15664;51.302;7.744;2022-10-23T06:56:11;53491.03;;;-146.98;82.53
28432;BME280;15664;51.302;7.744;2022-10-23T06:58:38;53509.25;;;-146.98;81.87
28432;BME280;15664;51.302;7.744;2022-10-23T07:01:13;53478.91;;;-146.98;80.55
28432;BME280;15664;51.302;7.744;2022-10-23T07:03:41;53505.19;;;-146.98;79.90
28432;BME280;15664;51.302;7.744;2022-10-23T07:06:09;53466.78;;;-146.98;79.31
28432;BME280;15664;51.302;7.744;2022-10-23T07:08:36;53499.13;;;-146.98;77.83
28432;BME280;15664;51.302;7.744;2022-10-23T07:11:10;53450.63;;;-146.98;76.40
28432;BME280;15664;51.302;7.744;2022-10-23T07:13:37;53503.19;;;-146.98;75.69
28432;BME280;15664;51.302;7.744;2022-10-23T07:16:21;53495.09;;;-146.98;75.72
28432;BME280;15664;51.302;7.744;2022-10-23T07:18:48;53476.91;;;-146.98;75.32
28432;BME280;15664;51.302;7.744;2022-10-23T07:21:33;53478.91;;;-146.98;75.33
28432;BME280;15664;51.302;7.744;2022-10-23T07:24:17;53450.63;;;-146.98;75.15
28432;BME280;15664;51.302;7.744;2022-10-23T07:26:43;53495.09;;;-146.98;75.21
28432;BME280;15664;51.302;7.744;2022-10-23T07:29:10;53487.00;;;-146.98;75.12
28432;BME280;15664;51.302;7.744;2022-10-23T07:31:35;53487.00;;;-146.98;75.32
28432;BME280;15664;51.302;7.744;2022-10-23T07:34:19;53509.25;;;-146.98;74.70
28432;BME280;15664;51.302;7.744;2022-10-23T07:36:51;53513.28;;;-146.98;74.50
28432;BME280;15664;51.302;7.744;2022-10-23T07:39:16;53491.03;;;-146.98;74.58
28432;BME280;15664;51.302;7.744;2022-10-23T07:41:48;53487.00;;;-146.98;74.72
28432;BME280;15664;51.302;7.744;2022-10-23T07:44:13;53482.97;;;-146.98;74.37
28432;BME280;15664;51.302;7.744;2022-10-23T07:46:39;53466.78;;;-146.98;73.98
28432;BME280;15664;51.302;7.744;2022-10-23T07:49:05;53458.72;;;-146.98;73.92
28432;BME280;15664;51.302;7.744;2022-10-23T07:51:31;53448.59;;;-146.98;73.69
28432;BME280;15664;51.302;7.744;2022-10-23T07:53:58;53460.72;;;-146.98;73.48
28432;BME280;15664;51.302;7.744;2022-10-23T07:56:49;53466.78;;;-146.98;73.62
28432;BME280;15664;51.302;7.744;2022-10-23T07:59:18;53484.97;;;-146.98;73.51
28432;BME280;15664;51.302;7.744;2022-10-23T08:01:48;53466.78;;;-146.98;73.32
28432;BME280;15664;51.302;7.744;2022-10-23T08:04:14;53474.88;;;-146.98;72.96
28432;BME280;15664;51.302;7.744;2022-10-23T08:06:51;53493.06;;;-146.98;72.61
28432;BME280;15664;51.302;7.744;2022-10-23T08:09:17;53458.72;;;-146.98;72.38
28432;BME280;15664;51.302;7.744;2022-10-23T08:11:42;53456.69;;;-146.98;71.97
28432;BME280;15664;51.302;7.744;2022-10-23T08:14:11;53482.97;;;-146.98;71.33
28432;BME280;15664;51.302;7.744;2022-10-23T08:16:39;53434.44;;;-146.98;71.16
28432;BME280;15664;51.302;7.744;2022-10-23T08:19:05;53482.97;;;-146.98;70.70
28432;BME280;15664;51.302;7.744;2022-10-23T08:21:33;53458.72;;;-146.98;70.30
28432;BME280;15664;51.302;7.744;2022-10-23T08:23:59;53442.53;;;-146.98;69.98
28432;BME280;15664;51.302;7.744;2022-10-23T08:26:26;53480.94;;;-146.98;69.82
28432;BME280;15664;51.302;7.744;2022-10-23T08:28:57;53484.97;;;-146.98;69.44
28432;BME280;15664;51.302;7.744;2022-10-23T08:31:24;53511.25;;;-146.98;69.43
28432;BME280;15664;51.302;7.744;2022-10-23T08:34:10;53442.53;;;-146.98;68.05
28432;BME280;15664;51.302;7.744;2022-10-23T08:36:36;53450.63;;;-146.98;67.78
28432;BME280;15664;51.302;7.744;2022-10-23T08:39:03;53462.75;;;-146.98;67.01
28432;BME280;15664;51.302;7.744;2022-10-23T08:41:36;53456.69;;;-146.98;66.67
28432;BME280;15664;51.302;7.744;2022-10-23T08:50:37;53487.00;;;-146.98;64.55
28432;BME280;15664;51.302;7.744;2022-10-23T08:56:04;53420.31;;;-146.98;64.01
28432;BME280;15664;51.302;7.744;2022-10-23T08:59:10;53414.25;;;-146.98;61.58
28432;BME280;15664;51.302;7.744;2022-10-23T09:01:45;53442.53;;;-146.98;59.69
28432;BME280;15664;51.302;7.744;2022-10-23T09:04:13;53394.03;;;-146.98;57.53
28432;BME280;15664;51.302;7.744;2022-10-23T09:12:15;53357.66;;;-146.98;52.09
28432;BME280;15664;51.302;7.744;2022-10-23T09:17:37;53353.59;;;-146.98;50.01
28432;BME280;15664;51.302;7.744;2022-10-23T09:22:53;53367.75;;;-146.98;48.71
28432;BME280;15664;51.302;7.744;2022-10-23T09:25:24;53375.84;;;-146.98;50.06
28432;BME280;15664;51.302;7.744;2022-10-23T09:27:56;53373.81;;;-146.98;49.12
28432;BME280;15664;51.302;7.744;2022-10-23T09:30:41;53369.78;;;-146.98;49.74
28432;BME280;15664;51.302;7.744;2022-10-23T09:33:18;53355.63;;;-146.98;50.78
28432;BME280;15664;51.302;7.744;2022-10-23T09:38:29;53369.78;;;-146.98;50.78
28432;BME280;15664;51.302;7.744;2022-10-23T09:43:41;53343.50;;;-146.98;50.45
28432;BME280;15664;51.302;7.744;2022-10-23T09:46:07;53367.75;;;-146.98;49.36
28432;BME280;15664;51.302;7.744;2022-10-23T09:48:37;53367.75;;;-146.98;49.94
28432;BME280;15664;51.302;7.744;2022-10-23T09:51:14;53373.81;;;-146.98;50.08
28432;BME280;15664;51.302;7.744;2022-10-23T09:53:57;53337.44;;;-146.98;51.01
28432;BME280;15664;51.302;7.744;2022-10-23T09:56:33;53369.78;;;-146.98;50.92
28432;BME280;15664;51.302;7.744;2022-10-23T09:59:02;53353.59;;;-146.98;50.62
28432;BME280;15664;51.302;7.744;2022-10-23T10:01:33;53343.50;;;-146.98;50.69
28432;BME280;15664;51.302;7.744;2022-10-23T10:04:37;53381.91;;;-146.98;51.81
28432;BME280;15664;51.302;7.744;2022-10-23T10:07:13;53381.91;;;-146.98;52.02
28432;BME280;15664;51.302;7.744;2022-10-23T10:09:41;53367.75;;;-146.98;52.69
28432;BME280;15664;51.302;7.744;2022-10-23T10:12:18;53387.97;;;-146.98;53.15
28432;BME280;15664;51.302;7.744;2022-10-23T10:14:57;53402.09;;;-146.98;54.44
28432;BME280;15664;51.302;7.744;2022-10-23T10:17:35;53400.09;;;-146.98;54.82
28432;BME280;15664;51.302;7.744;2022-10-23T10:23:13;53414.25;;;-146.98;55.87
28432;BME280;15664;51.302;7.744;2022-10-23T10:28:47;53383.91;;;-146.98;56.41
28432;BME280;15664;51.302;7.744;2022-10-23T10:31:17;53408.16;;;-146.98;55.92
28432;BME280;15664;51.302;7.744;2022-10-23T10:36:44;53385.94;;;-146.98;56.10
28432;BME280;15664;51.302;7.744;2022-10-23T10:45:26;53367.75;;;-146.98;56.37
28432;BME280;15664;51.302;7.744;2022-10-23T10:48:05;53400.09;;;-146.98;55.85
28432;BME280;15664;51.302;7.744;2022-10-23T10:51:00;53389.97;;;-146.98;55.37
28432;BME280;15664;51.302;7.744;2022-10-23T10:56:17;53377.84;;;-146.98;56.09
28432;BME280;15664;51.302;7.744;2022-10-23T10:58:55;53365.72;;;-146.98;56.38
28432;BME280;15664;51.302;7.744;2022-10-23T11:01:29;53402.09;;;-146.98;56.06
28432;BME280;15664;51.302;7.744;2022-10-23T11:04:13;53373.81;;;-146.98;56.20
28432;BME280;15664;51.302;7.744;2022-10-23T11:06:44;53392.00;;;-146.98;57.11
28432;BME280;15664;51.302;7.744;2022-10-23T11:09:38;53402.09;;;-146.98;57.71
28432;BME280;15664;51.302;7.744;2022-10-23T11:12:04;53383.91;;;-146.98;58.02
28432;BME280;15664;51.302;7.744;2022-10-23T11:14:31;53410.19;;;-146.98;58.34
28432;BME280;15664;51.302;7.744;2022-10-23T11:17:12;53398.06;;;-146.98;58.14
28432;BME280;15664;51.302;7.744;2022-10-23T11:22:22;53398.06;;;-146.98;57.74
28432;BME280;15664;51.302;7.744;2022-10-23T11:25:30;53416.25;;;-146.98;58.02
28432;BME280;15664;51.302;7.744;2022-10-23T11:28:17;53410.19;;;-146.98;57.83
28432;BME280;15664;51.302;7.744;2022-10-23T11:36:38;53414.25;;;-146.98;57.65
28432;BME280;15664;51.302;7.744;2022-10-23T11:39:21;53426.38;;;-146.98;57.13
28432;BME280;15664;51.302;7.744;2022-10-23T11:47:04;53406.16;;;-146.98;57.44
28432;BME280;15664;51.302;7.744;2022-10-23T11:49:29;53387.97;;;-146.98;56.90
28432;BME280;15664;51.302;7.744;2022-10-23T11:52:03;53359.66;;;-146.98;56.25
28432;BME280;15664;51.302;7.744;2022-10-23T11:54:29;53385.94;;;-146.98;54.96
28432;BME280;15664;51.302;7.744;2022-10-23T11:57:13;53414.25;;;-146.98;55.20
28432;BME280;15664;51.302;7.744;2022-10-23T12:02:36;53377.84;;;-146.98;55.39
28432;BME280;15664;51.302;7.744;2022-10-23T12:05:08;53394.03;;;-146.98;55.62
28432;BME280;15664;51.302;7.744;2022-10-23T12:07:39;53377.84;;;-146.98;55.44
28432;BME280;15664;51.302;7.744;2022-10-23T12:10:18;53398.06;;;-146.98;54.56
28432;BME280;15664;51.302;7.744;2022-10-23T12:12:55;53398.06;;;-146.98;54.45
28432;BME280;15664;51.302;7.744;2022-10-23T12:15:21;53373.81;;;-146.98;54.85
28432;BME280;15664;51.302;7.744;2022-10-23T12:17:49;53414.25;;;-146.98;55.51
28432;BME280;15664;51.302;7.744;2022-10-23T12:20:27;53381.91;;;-146.98;55.45
28432;BME280;15664;51.302;7.744;2022-10-23T12:25:42;53404.13;;;-146.98;56.32
28432;BME280;15664;51.302;7.744;2022-10-23T12:39:34;53381.91;;;-146.98;56.79
28432;BME280;15664;51.302;7.744;2022-10-23T12:42:02;53361.69;;;-146.98;53.43
28432;BME280;15664;51.302;7.744;2022-10-23T12:44:27;53375.84;;;-146.98;52.27
28432;BME280;15664;51.302;7.744;2022-10-23T12:46:57;53345.50;;;-146.98;52.35
28432;BME280;15664;51.302;7.744;2022-10-23T12:49:26;53365.72;;;-146.98;51.34
28432;BME280;15664;51.302;7.744;2022-10-23T12:51:57;53339.44;;;-146.98;48.94
28432;BME280;15664;51.302;7.744;2022-10-23T12:54:37;53321.25;;;-146.98;49.47
28432;BME280;15664;51.302;7.744;2022-10-23T12:59:44;53333.38;;;-146.98;48.00
28432;BME280;15664;51.302;7.744;2022-10-23T13:02:30;53278.81;;;-146.98;46.13
28432;BME280;15664;51.302;7.744;2022-10-23T13:04:58;53301.03;;;-146.98;46.42
28432;BME280;15664;51.302;7.744;2022-10-23T13:07:30;53292.97;;;-146.98;46.13
28432;BME280;15664;51.302;7.744;2022-10-23T13:10:00;53286.91;;;-146.98;45.42
28432;BME280;15664;51.302;7.744;2022-10-23T13:12:33;53284.88;;;-146.98;44.67
28432;BME280;15664;51.302;7.744;2022-10-23T13:17:41;53297.00;;;-146.98;45.12
28432;BME280;15664;51.302;7.744;2022-10-23T13:22:43;53272.75;;;-146.98;44.52
28432;BME280;15664;51.302;7.744;2022-10-23T13:27:47;53294.97;;;-146.98;44.78
28432;BME280;15664;51.302;7.744;2022-10-23T13:30:30;53288.91;;;-146.98;43.94
28432;BME280;15664;51.302;7.744;2022-10-23T13:32:56;53319.25;;;-146.98;45.21
28432;BME280;15664;51.302;7.744;2022-10-23T13:35:22;53321.25;;;-146.98;46.98
28432;BME280;15664;51.302;7.744;2022-10-23T13:37:47;53325.31;;;-146.98;47.81
28432;BME280;15664;51.302;7.744;2022-10-23T13:40:21;53337.44;;;-146.98;48.15
28432;BME280;15664;51.302;7.744;2022-10-23T13:42:53;53331.38;;;-146.98;49.24
28432;BME280;15664;51.302;7.744;2022-10-23T13:45:23;53347.53;;;-146.98;49.36
28432;BME280;15664;51.302;7.744;2022-10-23T13:47:48;53335.41;;;-146.98;49.62
28432;BME280;15664;51.302;7.744;2022-10-23T13:50:14;53323.28;;;-146.98;49.40
28432;BME280;15664;51.302;7.744;2022-10-23T13:52:39;53333.38;;;-146.98;50.53
28432;BME280;15664;51.302;7.744;2022-10-23T13:55:24;53305.09;;;-146.98;51.53
28432;BME280;15664;51.302;7.744;2022-10-23T13:57:50;53347.53;;;-146.98;51.48
28432;BME280;15664;51.302;7.744;2022-10-23T14:00:16;53355.63;;;-146.98;52.01
28432;BME280;15664;51.302;7.744;2022-10-23T14:02:42;53357.66;;;-146.98;52.37
28432;BME280;15664;51.302;7.744;2022-10-23T14:05:08;53355.63;;;-146.98;52.26
28432;BME280;15664;51.302;7.744;2022-10-23T14:07:33;53383.91;;;-146.98;52.65
28432;BME280;15664;51.302;7.744;2022-10-23T14:09:59;53377.84;;;-146.98;53.17
28432;BME280;15664;51.302;7.744;2022-10-23T14:12:24;53373.81;;;-146.98;53.17
28432;BME280;15664;51.302;7.744;2022-10-23T14:14:50;53400.09;;;-146.98;52.97
28432;BME280;15664;51.302;7.744;2022-10-23T14:17:16;53369.78;;;-146.98;53.58
28432;BME280;15664;51.302;7.744;2022-10-23T14:19:41;53385.94;;;-146.98;54.02
28432;BME280;15664;51.302;7.744;2022-10-23T14:22:06;53361.69;;;-146.98;54.09
28432;BME280;15664;51.302;7.744;2022-10-23T14:24:32;53398.06;;;-146.98;54.58
28432;BME280;15664;51.302;7.744;2022-10-23T14:26:57;53398.06;;;-146.98;54.21
28432;BME280;15664;51.302;7.744;2022-10-23T14:29:23;53385.94;;;-146.98;54.65
28432;BME280;15664;51.302;7.744;2022-10-23T14:31:49;53377.84;;;-146.98;55.20
28432;BME280;15664;51.302;7.744;2022-10-23T14:34:14;53398.06;;;-146.98;55.77
28432;BME280;15664;51.302;7.744;2022-10-23T14:36:39;53420.31;;;-146.98;55.72
28432;BME280;15664;51.302;7.744;2022-10-23T14:39:05;53369.78;;;-146.98;55.69
28432;BME280;15664;51.302;7.744;2022-10-23T14:41:30;53381.91;;;-146.98;56.20
28432;BME280;15664;51.302;7.744;2022-10-23T14:43:55;53412.22;;;-146.98;56.55
28432;BME280;15664;51.302;7.744;2022-10-23T14:46:22;53414.25;;;-146.98;56.91